HEBS weather

Beni Suef Air Base
Beni Suef, Beni Suef Governorate, Egypt

Public forecast

Using degrees Celsius for public forecast. Weather courtesy of forecast.io.

Closest aviation weather report (METAR) to Beni Suef Air Base

Closest report is Cairo International Airport, 58.5 nm (108.3 km) NNE. Retrieved 2019/10/21 04:00 UTC (48 minutes ago):

HECA 210400Z 00000KT CAVOK 23/10 Q1014 NOSIG

Closest aviation forecast (TAF) to Beni Suef Air Base

Closest forecast is Cairo International Airport, 58.5 nm (108.3 km) NNE. Retrieved 2019-10-21 00:40 UTC (4 hours ago):

TAF HECA 202300Z 2100/2206 12006KT CAVOK TEMPO 2101/2106 4000 HZ NSC BECMG 2106/2108 03010KT 9999 SCT025